createdAt,value
2023-02-19T00:01:53.365Z,70.39
2023-02-19T00:04:22.854Z,70.45
2023-02-19T00:06:51.148Z,70.05
2023-02-19T00:09:20.209Z,70.13
2023-02-19T00:11:48.506Z,70.28
2023-02-19T00:14:20.888Z,70.08
2023-02-19T00:16:49.485Z,69.75
2023-02-19T00:19:19.582Z,69.73
2023-02-19T00:21:47.540Z,69.41
2023-02-19T00:24:17.058Z,69.37
2023-02-19T00:26:46.227Z,69.63
2023-02-19T00:29:20.884Z,69.93
2023-02-19T00:31:49.102Z,70.03
2023-02-19T00:34:16.836Z,70.21
2023-02-19T00:36:45.221Z,70.57
2023-02-19T00:39:16.180Z,70.42
2023-02-19T00:41:44.463Z,70.60
2023-02-19T00:44:13.684Z,70.51
2023-02-19T00:46:44.235Z,70.70
2023-02-19T00:49:18.110Z,70.60
2023-02-19T00:51:48.051Z,70.43
2023-02-19T00:54:16.464Z,69.99
2023-02-19T00:56:44.148Z,70.17
2023-02-19T00:59:12.305Z,69.87
2023-02-19T01:01:40.003Z,69.90
2023-02-19T01:04:10.082Z,70.04
2023-02-19T01:06:38.080Z,70.14
2023-02-19T01:09:07.186Z,70.14
2023-02-19T01:11:35.262Z,70.19
2023-02-19T01:14:04.864Z,70.19
2023-02-19T01:16:32.520Z,70.13
2023-02-19T01:19:02.746Z,70.30
2023-02-19T01:21:31.783Z,70.25
2023-02-19T01:24:00.170Z,70.12
2023-02-19T01:26:31.309Z,69.86
2023-02-19T01:29:00.228Z,70.03
2023-02-19T01:31:28.758Z,70.06
2023-02-19T01:33:59.854Z,70.27
2023-02-19T01:36:28.618Z,70.44
2023-02-19T01:38:56.642Z,70.27
2023-02-19T01:41:26.954Z,70.29
2023-02-19T01:44:07.906Z,69.95
2023-02-19T01:46:39.999Z,70.25
2023-02-19T01:49:15.239Z,70.62
2023-02-19T01:51:47.529Z,71.10
2023-02-19T01:54:21.471Z,71.56
2023-02-19T01:56:50.984Z,71.89
2023-02-19T01:59:19.670Z,72.03
2023-02-19T02:01:49.852Z,72.13
2023-02-19T02:04:19.893Z,72.58
2023-02-19T02:06:54.481Z,72.15
2023-02-19T02:09:42.861Z,71.78
2023-02-19T02:12:13.615Z,71.88
2023-02-19T02:14:49.163Z,72.04
2023-02-19T02:17:50.876Z,71.10
2023-02-19T02:20:40.255Z,71.59
2023-02-19T02:23:23.660Z,71.85
2023-02-19T02:26:29.732Z,71.95
2023-02-19T02:28:57.268Z,72.01
2023-02-19T02:31:31.679Z,71.94
2023-02-19T02:33:59.265Z,71.54
2023-02-19T02:36:49.790Z,71.77
2023-02-19T02:39:21.787Z,71.82
2023-02-19T02:42:11.415Z,71.76
2023-02-19T02:45:06.637Z,71.97
2023-02-19T02:47:42.540Z,72.01
2023-02-19T02:50:16.875Z,72.13
2023-02-19T02:53:03.910Z,72.31
2023-02-19T02:55:36.989Z,72.45
2023-02-19T02:58:06.096Z,72.61
2023-02-19T03:00:49.479Z,72.65
2023-02-19T03:03:22.537Z,73.10
2023-02-19T03:05:57.661Z,73.56
2023-02-19T03:08:32.786Z,73.33
2023-02-19T03:11:29.986Z,73.52
2023-02-19T03:14:27.806Z,73.97
2023-02-19T03:17:19.290Z,74.69
2023-02-19T03:19:51.018Z,74.14
2023-02-19T03:22:23.712Z,74.45
2023-02-19T03:25:24.101Z,74.96
2023-02-19T03:27:53.426Z,75.95
2023-02-19T03:30:25.476Z,75.99
2023-02-19T03:32:59.521Z,76.58
2023-02-19T03:35:31.911Z,76.84
2023-02-19T03:38:09.921Z,76.71
2023-02-19T03:40:52.351Z,76.13
2023-02-19T03:43:31.386Z,76.09
2023-02-19T03:46:09.718Z,76.97
2023-02-19T03:48:43.712Z,77.69
2023-02-19T03:51:21.635Z,78.18
2023-02-19T03:53:59.847Z,78.56
2023-02-19T03:56:54.997Z,78.44
2023-02-19T03:59:33.347Z,79.14
2023-02-19T04:02:13.219Z,79.78
2023-02-19T04:04:46.988Z,80.17
2023-02-19T04:07:14.901Z,80.43
2023-02-19T04:09:49.378Z,80.51
2023-02-19T04:12:18.857Z,80.07
2023-02-19T04:15:20.644Z,80.45
2023-02-19T04:17:56.552Z,80.47
2023-02-19T04:20:31.061Z,79.65
2023-02-19T04:22:59.077Z,78.98
2023-02-19T04:25:28.749Z,80.02
2023-02-19T04:27:56.477Z,80.16
2023-02-19T04:30:24.166Z,80.72
2023-02-19T04:32:51.819Z,80.21
2023-02-19T04:35:19.437Z,80.93
2023-02-19T04:37:47.234Z,81.42
2023-02-19T04:40:16.349Z,81.45
2023-02-19T04:42:44.025Z,82.15
2023-02-19T04:45:13.757Z,82.64
2023-02-19T04:47:41.389Z,82.83
2023-02-19T04:50:10.273Z,84.04
2023-02-19T04:52:37.881Z,83.94
2023-02-19T04:55:05.869Z,85.06
2023-02-19T04:57:33.530Z,85.53
2023-02-19T05:00:04.236Z,85.68
2023-02-19T05:02:31.935Z,85.31
2023-02-19T05:05:01.868Z,85.73
2023-02-19T05:07:29.479Z,85.10
2023-02-19T05:09:57.087Z,84.37
2023-02-19T05:12:24.678Z,84.80
2023-02-19T05:14:54.424Z,84.73
2023-02-19T05:17:23.526Z,84.40
2023-02-19T05:19:56.026Z,84.48
2023-02-19T05:22:23.677Z,84.40
2023-02-19T05:24:51.284Z,84.40
2023-02-19T05:27:18.906Z,84.34
2023-02-19T05:29:46.594Z,84.33
2023-02-19T05:32:16.696Z,84.43
2023-02-19T05:34:44.304Z,84.82
2023-02-19T05:37:12.004Z,85.07
2023-02-19T05:39:39.725Z,85.40
2023-02-19T05:42:07.632Z,85.36
2023-02-19T05:44:35.231Z,85.84
2023-02-19T05:47:02.937Z,86.60
2023-02-19T05:49:30.554Z,86.74
2023-02-19T05:52:00.528Z,87.29
2023-02-19T05:54:30.666Z,87.09
2023-02-19T05:56:58.342Z,87.01
2023-02-19T05:59:28.813Z,87.28
2023-02-19T06:01:58.301Z,87.83
2023-02-19T06:04:25.936Z,87.57
2023-02-19T06:06:53.560Z,87.65
2023-02-19T06:09:21.172Z,87.84
2023-02-19T06:11:51.239Z,88.20
2023-02-19T06:14:18.855Z,87.93
2023-02-19T06:16:46.626Z,87.74
2023-02-19T06:19:14.200Z,87.85
2023-02-19T06:21:41.815Z,87.93
2023-02-19T06:24:10.604Z,88.12
2023-02-19T06:26:39.213Z,88.42
2023-02-19T06:29:06.888Z,88.11
2023-02-19T06:31:34.903Z,88.45
2023-02-19T06:34:05.842Z,88.35
2023-02-19T06:36:33.530Z,89.00
2023-02-19T06:39:01.778Z,88.68
2023-02-19T06:41:31.999Z,88.27
2023-02-19T06:44:02.310Z,87.62
2023-02-19T06:46:29.944Z,88.01
2023-02-19T06:48:57.628Z,88.37
2023-02-19T06:51:27.220Z,88.31
2023-02-19T06:53:54.837Z,88.56
2023-02-19T06:56:25.199Z,88.51
2023-02-19T06:58:54.220Z,88.58
2023-02-19T07:01:23.354Z,89.15
2023-02-19T07:03:53.966Z,88.91
2023-02-19T07:06:23.876Z,89.13
2023-02-19T07:08:52.536Z,89.21
2023-02-19T07:11:20.344Z,89.36
2023-02-19T07:13:47.999Z,88.98
2023-02-19T07:16:20.543Z,89.13
2023-02-19T07:18:48.246Z,89.13
2023-02-19T07:21:19.261Z,88.91
2023-02-19T07:23:49.278Z,89.05
2023-02-19T07:26:20.721Z,88.53
2023-02-19T07:28:50.557Z,89.05
2023-02-19T07:31:20.481Z,88.40
2023-02-19T07:33:51.273Z,88.35
2023-02-19T07:36:25.470Z,88.05
2023-02-19T07:39:04.424Z,87.48
2023-02-19T07:41:34.419Z,87.96
2023-02-19T07:44:02.110Z,87.93
2023-02-19T07:46:30.031Z,87.71
2023-02-19T07:48:57.743Z,87.54
2023-02-19T07:51:25.423Z,87.52
2023-02-19T07:53:53.351Z,86.43
2023-02-19T07:56:21.569Z,86.43
2023-02-19T07:58:49.454Z,85.94
2023-02-19T08:01:44.253Z,85.55
2023-02-19T08:04:15.099Z,85.28
2023-02-19T08:06:43.742Z,85.28
2023-02-19T08:09:22.177Z,85.14
2023-02-19T08:12:10.014Z,84.84
2023-02-19T08:14:40.037Z,85.30
2023-02-19T08:17:07.745Z,85.59
2023-02-19T08:19:39.868Z,87.94
2023-02-19T08:22:07.629Z,89.12
2023-02-19T08:24:36.178Z,90.66
2023-02-19T08:27:06.667Z,90.66
2023-02-19T08:29:36.658Z,92.10
2023-02-19T08:32:04.376Z,92.14
2023-02-19T08:34:32.016Z,93.08
2023-02-19T08:37:02.011Z,93.03
2023-02-19T08:39:29.660Z,94.92
2023-02-19T08:41:57.295Z,94.58
2023-02-19T08:44:24.963Z,94.00
2023-02-19T08:46:52.733Z,93.83
2023-02-19T08:49:20.367Z,92.04
2023-02-19T08:51:47.999Z,92.61
2023-02-19T08:54:15.645Z,93.18
2023-02-19T08:56:45.867Z,94.70
2023-02-19T08:59:14.158Z,94.16
2023-02-19T09:01:41.910Z,94.21
2023-02-19T09:04:13.743Z,94.43
2023-02-19T09:06:41.687Z,93.73
2023-02-19T09:09:09.827Z,94.15
2023-02-19T09:11:40.299Z,94.18
2023-02-19T09:14:11.339Z,95.25
2023-02-19T09:16:42.321Z,94.49
2023-02-19T09:19:10.042Z,95.55
2023-02-19T09:21:40.304Z,96.44
2023-02-19T09:24:10.496Z,97.17
2023-02-19T09:26:38.737Z,98.18
2023-02-19T09:29:08.799Z,98.45
2023-02-19T09:31:36.706Z,98.94
2023-02-19T09:34:07.523Z,99.11
2023-02-19T09:36:35.136Z,98.70
2023-02-19T09:39:04.568Z,98.78
2023-02-19T09:41:37.864Z,97.98
2023-02-19T09:44:10.941Z,98.16
2023-02-19T09:46:52.281Z,97.70
2023-02-19T09:49:35.794Z,97.06
2023-02-19T09:52:19.386Z,95.79
2023-02-19T09:54:51.240Z,95.15
2023-02-19T09:57:23.260Z,93.94
2023-02-19T10:00:14.902Z,92.71
2023-02-19T10:02:42.586Z,92.60
2023-02-19T10:05:17.662Z,92.86
2023-02-19T10:07:47.838Z,91.58
2023-02-19T10:10:15.453Z,90.84
2023-02-19T10:12:52.588Z,84.21
2023-02-19T10:15:20.156Z,81.57
2023-02-19T10:17:50.100Z,78.48
2023-02-19T10:20:24.754Z,74.14
2023-02-19T10:23:11.787Z,70.02
2023-02-19T10:25:47.517Z,69.86
2023-02-19T10:28:24.095Z,67.85
2023-02-19T10:30:59.261Z,65.79
2023-02-19T10:33:27.788Z,63.17
2023-02-19T10:36:05.569Z,60.61
2023-02-19T10:38:39.941Z,66.15
2023-02-19T10:41:14.302Z,64.81
2023-02-19T10:43:51.458Z,67.40
2023-02-19T10:46:29.665Z,66.40
2023-02-19T10:49:00.675Z,64.84
2023-02-19T10:51:38.068Z,62.87
2023-02-19T10:54:31.219Z,64.49
2023-02-19T10:57:21.113Z,62.24
2023-02-19T10:59:57.630Z,60.69
2023-02-19T11:02:28.886Z,58.28
2023-02-19T11:05:12.306Z,56.00
2023-02-19T11:07:45.887Z,54.80
2023-02-19T11:10:42.300Z,53.33
2023-02-19T11:13:17.742Z,52.77
2023-02-19T11:15:56.285Z,51.37
2023-02-19T11:18:32.468Z,51.10
2023-02-19T11:21:08.204Z,52.00
2023-02-19T11:23:39.530Z,51.71
2023-02-19T11:26:16.855Z,50.10
2023-02-19T11:28:45.297Z,51.71
2023-02-19T11:31:25.000Z,51.50
2023-02-19T11:34:00.092Z,49.31
2023-02-19T11:36:30.395Z,48.72
2023-02-19T11:39:19.721Z,46.76
2023-02-19T11:41:53.702Z,47.28
2023-02-19T11:44:41.614Z,46.71
2023-02-19T11:47:11.923Z,47.15
2023-02-19T11:49:51.320Z,45.05
2023-02-19T11:52:25.495Z,44.47
2023-02-19T11:55:05.265Z,43.32
2023-02-19T11:58:03.920Z,44.57
2023-02-19T12:00:32.473Z,44.05
2023-02-19T12:03:00.120Z,44.08
2023-02-19T12:05:33.954Z,45.88
2023-02-19T12:08:21.469Z,45.37
2023-02-19T12:11:11.030Z,46.45
2023-02-19T12:14:09.583Z,45.43
2023-02-19T12:17:00.273Z,46.48
2023-02-19T12:20:01.191Z,46.92
2023-02-19T12:22:34.626Z,46.86
2023-02-19T12:25:25.651Z,46.42
2023-02-19T12:28:28.148Z,45.91
2023-02-19T12:31:05.463Z,44.49
2023-02-19T12:33:50.337Z,45.67
2023-02-19T12:36:24.009Z,46.61
2023-02-19T12:39:08.258Z,47.37
2023-02-19T12:42:08.528Z,49.33
2023-02-19T12:44:43.275Z,48.06
2023-02-19T12:47:19.614Z,46.75
2023-02-19T12:50:06.657Z,46.31
2023-02-19T12:52:42.600Z,45.07
2023-02-19T12:55:28.431Z,46.05
2023-02-19T12:58:01.750Z,46.37
2023-02-19T13:00:32.619Z,45.81
2023-02-19T13:03:20.775Z,50.39
2023-02-19T13:05:48.383Z,57.72
2023-02-19T13:08:25.250Z,60.16
2023-02-19T13:11:00.656Z,63.11
2023-02-19T13:13:41.975Z,62.12
2023-02-19T13:16:18.771Z,63.71
2023-02-19T13:18:56.787Z,64.04
2023-02-19T13:21:48.860Z,62.98
2023-02-19T13:24:37.814Z,59.73
2023-02-19T13:27:29.379Z,58.97
2023-02-19T13:30:37.934Z,57.41
2023-02-19T13:33:30.498Z,56.32
2023-02-19T13:36:13.435Z,56.65
2023-02-19T13:38:45.126Z,57.43
2023-02-19T13:41:29.891Z,56.17
2023-02-19T13:44:01.781Z,56.28
2023-02-19T13:46:43.114Z,57.15
2023-02-19T13:49:46.083Z,58.10
2023-02-19T13:52:33.498Z,59.34
2023-02-19T13:55:42.099Z,60.55
2023-02-19T13:58:37.942Z,61.40
2023-02-19T14:01:14.103Z,64.77
2023-02-19T14:03:50.916Z,72.31
2023-02-19T14:06:28.526Z,75.12
2023-02-19T14:09:00.353Z,81.85
2023-02-19T14:11:44.027Z,85.73
2023-02-19T14:14:53.709Z,88.39
2023-02-19T14:17:47.633Z,90.27
2023-02-19T14:20:18.209Z,89.91
2023-02-19T14:22:49.890Z,87.94
2023-02-19T14:26:05.043Z,90.73
2023-02-19T14:28:44.001Z,89.68
2023-02-19T14:31:27.638Z,90.65
2023-02-19T14:34:04.823Z,92.52
2023-02-19T14:36:32.351Z,91.88
2023-02-19T14:39:08.103Z,91.41
2023-02-19T14:41:40.424Z,91.15
2023-02-19T14:44:16.309Z,92.41
2023-02-19T14:47:06.439Z,90.75
2023-02-19T14:49:46.451Z,88.87
2023-02-19T14:52:25.611Z,90.80
2023-02-19T14:55:04.774Z,92.34
2023-02-19T14:57:41.876Z,90.31
2023-02-19T15:00:38.266Z,90.10
2023-02-19T15:03:44.844Z,90.56
2023-02-19T15:06:20.199Z,91.47
2023-02-19T15:08:53.883Z,92.84
2023-02-19T15:11:24.740Z,92.40
2023-02-19T15:13:57.171Z,92.73
2023-02-19T15:16:26.965Z,91.59
2023-02-19T15:18:59.814Z,92.51
2023-02-19T15:21:31.053Z,91.96
2023-02-19T15:24:02.692Z,91.52
2023-02-19T15:26:36.922Z,90.67
2023-02-19T15:29:11.619Z,91.37
2023-02-19T15:31:49.794Z,90.48
2023-02-19T15:34:24.403Z,90.82
2023-02-19T15:36:57.509Z,89.85
2023-02-19T15:39:30.361Z,90.62
2023-02-19T15:42:01.403Z,90.37
2023-02-19T15:44:32.361Z,90.79
2023-02-19T15:47:07.098Z,91.06
2023-02-19T15:49:46.531Z,90.60
2023-02-19T15:52:32.755Z,90.60
2023-02-19T15:55:26.812Z,90.97
2023-02-19T15:58:06.072Z,90.77
2023-02-19T16:00:51.386Z,90.33
2023-02-19T16:03:21.861Z,89.33
2023-02-19T16:06:14.917Z,88.80
2023-02-19T16:08:46.421Z,88.86
2023-02-19T16:11:31.055Z,88.85
2023-02-19T16:14:23.382Z,87.93
2023-02-19T16:16:58.252Z,87.70
2023-02-19T16:19:29.769Z,87.82
2023-02-19T16:21:59.490Z,87.10
2023-02-19T16:24:34.881Z,87.25
2023-02-19T16:27:03.870Z,86.97
2023-02-19T16:29:36.654Z,87.26
2023-02-19T16:32:07.188Z,88.29
2023-02-19T16:34:43.992Z,86.93
2023-02-19T16:37:41.082Z,86.93
2023-02-19T16:40:11.787Z,87.50
2023-02-19T16:43:14.361Z,87.05
2023-02-19T16:45:48.596Z,87.06
2023-02-19T16:48:16.647Z,87.06
2023-02-19T16:50:46.271Z,87.53
2023-02-19T16:53:24.902Z,88.70
2023-02-19T16:55:52.835Z,88.97
2023-02-19T16:58:22.836Z,89.16
2023-02-19T17:00:52.698Z,89.63
2023-02-19T17:03:23.784Z,89.35
2023-02-19T17:05:51.796Z,89.28
2023-02-19T17:08:40.267Z,89.17
2023-02-19T17:11:14.474Z,88.58
2023-02-19T17:13:43.132Z,88.55
2023-02-19T17:16:19.709Z,88.83
2023-02-19T17:18:47.366Z,89.00
2023-02-19T17:21:22.427Z,89.07
2023-02-19T17:23:50.598Z,89.13
2023-02-19T17:26:21.373Z,88.80
2023-02-19T17:28:49.609Z,88.77
2023-02-19T17:31:19.824Z,88.85
2023-02-19T17:33:50.112Z,88.83
2023-02-19T17:36:26.915Z,88.57
2023-02-19T17:38:55.524Z,88.48
2023-02-19T17:41:23.207Z,87.94
2023-02-19T17:43:51.691Z,87.64
2023-02-19T17:46:24.303Z,87.06
2023-02-19T17:48:52.585Z,87.08
2023-02-19T17:51:21.092Z,87.20
2023-02-19T17:53:48.709Z,87.08
2023-02-19T17:56:19.306Z,86.63
2023-02-19T17:58:49.439Z,86.39
2023-02-19T18:01:17.365Z,86.03
2023-02-19T18:03:45.108Z,86.34
2023-02-19T18:06:15.173Z,85.58
2023-02-19T18:08:55.443Z,85.51
2023-02-19T18:11:26.219Z,85.37
2023-02-19T18:13:53.860Z,85.36
2023-02-19T18:16:21.653Z,85.15
2023-02-19T18:18:49.326Z,84.35
2023-02-19T18:21:19.277Z,84.94
2023-02-19T18:23:47.915Z,85.32
2023-02-19T18:26:20.504Z,85.17
2023-02-19T18:28:48.574Z,85.71
2023-02-19T18:31:16.372Z,86.10
2023-02-19T18:33:44.235Z,86.04
2023-02-19T18:36:13.100Z,86.04
2023-02-19T18:38:43.393Z,86.12
2023-02-19T18:41:20.234Z,86.13
2023-02-19T18:43:50.560Z,85.95
2023-02-19T18:46:23.925Z,85.87
2023-02-19T18:48:51.596Z,85.60
2023-02-19T18:51:19.260Z,85.87
2023-02-19T18:53:47.042Z,87.88
2023-02-19T18:56:14.677Z,86.97
2023-02-19T18:58:42.311Z,87.63
2023-02-19T19:01:14.894Z,88.10
2023-02-19T19:03:42.696Z,88.37
2023-02-19T19:06:10.349Z,88.52
2023-02-19T19:08:37.972Z,88.20
2023-02-19T19:11:06.035Z,87.94
2023-02-19T19:13:33.677Z,86.47
2023-02-19T19:16:01.628Z,86.18
2023-02-19T19:18:31.234Z,85.69
2023-02-19T19:21:03.169Z,85.51
2023-02-19T19:23:30.800Z,85.52
2023-02-19T19:25:58.859Z,84.95
2023-02-19T19:28:26.459Z,85.12
2023-02-19T19:30:54.160Z,85.13
2023-02-19T19:33:23.170Z,85.18
2023-02-19T19:35:50.819Z,85.16
2023-02-19T19:38:18.598Z,85.38
2023-02-19T19:40:46.220Z,85.31
2023-02-19T19:43:13.983Z,85.42
2023-02-19T19:45:43.846Z,85.48
2023-02-19T19:48:11.525Z,85.59
2023-02-19T19:50:41.596Z,85.84
2023-02-19T19:53:09.226Z,86.14
2023-02-19T19:55:36.850Z,86.21
2023-02-19T19:58:06.878Z,85.92
2023-02-19T20:00:34.484Z,85.43
2023-02-19T20:03:03.029Z,85.62
2023-02-19T20:05:30.740Z,85.75
2023-02-19T20:08:00.441Z,84.87
2023-02-19T20:10:28.086Z,84.50
2023-02-19T20:12:55.706Z,84.88
2023-02-19T20:15:23.989Z,84.59
2023-02-19T20:17:51.725Z,84.11
2023-02-19T20:20:21.521Z,83.68
2023-02-19T20:22:50.334Z,83.63
2023-02-19T20:25:18.083Z,82.91
2023-02-19T20:27:48.212Z,82.31
2023-02-19T20:30:17.309Z,82.51
2023-02-19T20:32:45.216Z,82.22
2023-02-19T20:35:13.113Z,81.97
2023-02-19T20:37:41.697Z,81.82
2023-02-19T20:40:13.205Z,81.70
2023-02-19T20:42:40.820Z,81.89
2023-02-19T20:45:08.853Z,81.68
2023-02-19T20:47:37.671Z,81.05
2023-02-19T20:50:06.278Z,81.63
2023-02-19T20:52:34.183Z,81.56
2023-02-19T20:55:02.033Z,81.55
2023-02-19T20:57:29.659Z,81.26
2023-02-19T20:59:57.269Z,81.20
2023-02-19T21:02:29.130Z,81.36
2023-02-19T21:04:58.048Z,81.37
2023-02-19T21:07:26.828Z,81.41
2023-02-19T21:09:54.845Z,81.26
2023-02-19T21:12:23.795Z,81.25
2023-02-19T21:14:51.429Z,81.34
2023-02-19T21:17:19.160Z,80.68
2023-02-19T21:19:50.132Z,81.52
2023-02-19T21:22:18.110Z,81.40
2023-02-19T21:24:51.994Z,81.40
2023-02-19T21:27:21.001Z,81.72
2023-02-19T21:29:48.719Z,81.73
2023-02-19T21:32:16.450Z,81.89
2023-02-19T21:34:44.182Z,81.84
2023-02-19T21:37:11.825Z,81.80
2023-02-19T21:39:39.508Z,81.75
2023-02-19T21:42:09.532Z,81.54
2023-02-19T21:44:37.696Z,81.57
2023-02-19T21:47:05.395Z,81.09
2023-02-19T21:49:35.576Z,81.19
2023-02-19T21:52:03.347Z,81.42
2023-02-19T21:54:31.023Z,81.06
2023-02-19T21:57:03.697Z,80.66
2023-02-19T21:59:33.989Z,78.99
2023-02-19T22:02:01.550Z,79.03
2023-02-19T22:04:29.175Z,78.09
2023-02-19T22:06:57.654Z,77.90
2023-02-19T22:09:25.346Z,77.15
2023-02-19T22:11:52.997Z,76.36
2023-02-19T22:14:20.621Z,76.25
2023-02-19T22:16:48.345Z,75.24
2023-02-19T22:19:16.062Z,73.46
2023-02-19T22:21:45.447Z,73.76
2023-02-19T22:24:18.847Z,73.03
2023-02-19T22:26:46.811Z,73.12
2023-02-19T22:29:16.362Z,72.80
2023-02-19T22:31:44.810Z,72.67
2023-02-19T22:34:15.625Z,71.56
2023-02-19T22:36:43.782Z,71.55
2023-02-19T22:39:25.164Z,71.71
2023-02-19T22:41:53.539Z,70.97
2023-02-19T22:44:23.266Z,71.12
2023-02-19T22:46:56.648Z,71.19
2023-02-19T22:49:25.019Z,71.36
2023-02-19T22:52:08.480Z,71.75
2023-02-19T22:54:39.565Z,71.71
2023-02-19T22:57:07.256Z,71.91
2023-02-19T22:59:34.883Z,71.34
2023-02-19T23:02:05.012Z,70.98
2023-02-19T23:04:32.669Z,71.20
2023-02-19T23:07:00.236Z,70.95
2023-02-19T23:09:29.987Z,70.69
2023-02-19T23:12:09.311Z,69.87
2023-02-19T23:14:37.676Z,70.13
2023-02-19T23:17:05.551Z,70.04
2023-02-19T23:19:33.257Z,70.06
2023-02-19T23:22:00.957Z,69.39
2023-02-19T23:24:30.898Z,68.07
2023-02-19T23:26:59.674Z,68.73
2023-02-19T23:29:30.437Z,68.51
2023-02-19T23:32:00.983Z,67.84
2023-02-19T23:34:30.808Z,68.55
2023-02-19T23:37:00.610Z,68.30
2023-02-19T23:39:28.219Z,68.06
2023-02-19T23:41:58.509Z,68.17
2023-02-19T23:44:28.688Z,68.31
2023-02-19T23:46:58.619Z,67.79
2023-02-19T23:49:26.257Z,68.24
2023-02-19T23:51:53.876Z,68.30
2023-02-19T23:54:21.574Z,67.92
2023-02-19T23:56:49.243Z,68.25
2023-02-19T23:59:21.551Z,67.25
